createdAt,value
2023-03-31T05:30:31.699Z,4.85
2023-03-31T05:32:59.361Z,4.35
2023-03-31T05:35:26.894Z,4.30
2023-03-31T05:37:54.489Z,3.58
2023-03-31T05:40:22.008Z,4.15
2023-03-31T05:42:50.516Z,4.55
2023-03-31T05:45:17.932Z,5.28
2023-03-31T05:47:45.627Z,4.65
2023-03-31T05:50:14.792Z,3.80
2023-03-31T05:52:42.646Z,4.63
2023-03-31T05:55:10.890Z,4.72
2023-03-31T05:57:41.238Z,4.97
2023-03-31T06:00:11.342Z,4.53
2023-03-31T06:02:39.327Z,4.55
2023-03-31T06:05:07.903Z,4.13
2023-03-31T06:07:36.195Z,5.07
2023-03-31T06:10:04.156Z,5.18
2023-03-31T06:12:32.665Z,4.28
2023-03-31T06:15:00.119Z,4.25
2023-03-31T06:17:29.536Z,5.20
2023-03-31T06:19:59.748Z,4.35
2023-03-31T06:22:28.096Z,5.80
2023-03-31T06:24:56.580Z,4.63
2023-03-31T06:27:24.634Z,4.88
2023-03-31T06:29:53.734Z,6.32
2023-03-31T06:32:23.994Z,5.13
2023-03-31T06:34:55.360Z,4.53
2023-03-31T06:37:23.039Z,4.55
2023-03-31T06:39:51.103Z,4.80
2023-03-31T06:42:18.948Z,4.97
2023-03-31T06:44:46.466Z,4.47
2023-03-31T06:47:14.093Z,4.60
2023-03-31T06:49:42.439Z,4.45
2023-03-31T06:52:10.162Z,3.58
2023-03-31T06:54:40.144Z,4.40
2023-03-31T06:57:10.035Z,3.55
2023-03-31T06:59:38.407Z,3.00
2023-03-31T07:02:07.060Z,3.65
2023-03-31T07:04:39.458Z,3.85
2023-03-31T07:07:07.563Z,3.05
2023-03-31T07:09:35.615Z,2.95
2023-03-31T07:12:07.251Z,2.25
2023-03-31T07:14:35.415Z,2.22
2023-03-31T07:17:03.456Z,2.13
2023-03-31T07:19:31.244Z,1.77
2023-03-31T07:21:58.824Z,1.50
2023-03-31T07:24:26.954Z,2.10
2023-03-31T07:26:54.558Z,1.65
2023-03-31T07:29:22.497Z,1.77
2023-03-31T07:31:50.972Z,1.30
2023-03-31T07:34:38.470Z,1.52
2023-03-31T07:37:29.094Z,1.15
2023-03-31T07:40:09.338Z,0.85
2023-03-31T07:42:47.855Z,1.25
2023-03-31T07:45:17.495Z,1.40
2023-03-31T07:47:51.396Z,1.35
2023-03-31T07:50:26.777Z,0.95
2023-03-31T07:52:56.004Z,2.50
2023-03-31T07:55:27.652Z,1.27
2023-03-31T07:57:56.945Z,1.13
2023-03-31T08:00:39.294Z,1.00
2023-03-31T08:03:20.113Z,1.33
2023-03-31T08:05:53.299Z,1.35
2023-03-31T08:08:25.744Z,1.27
2023-03-31T08:11:00.754Z,1.25
2023-03-31T08:13:29.485Z,1.40
2023-03-31T08:15:57.291Z,1.52
2023-03-31T08:18:25.782Z,1.63
2023-03-31T08:20:53.885Z,1.10
2023-03-31T08:23:29.370Z,0.82
2023-03-31T08:33:27.966Z,0.93
2023-03-31T08:36:17.700Z,0.90
2023-03-31T08:38:47.631Z,0.85
2023-03-31T08:41:35.736Z,0.60
2023-03-31T08:44:28.150Z,0.90
2023-03-31T08:46:58.906Z,0.73
2023-03-31T08:49:29.660Z,0.80
2023-03-31T08:52:15.200Z,1.05
2023-03-31T08:54:59.761Z,1.00
2023-03-31T08:58:36.208Z,1.30
2023-03-31T09:01:55.495Z,0.93
2023-03-31T09:05:29.386Z,0.90
2023-03-31T09:08:30.185Z,0.73
2023-03-31T09:11:28.411Z,0.77
2023-03-31T09:14:23.830Z,0.90
2023-03-31T09:17:22.414Z,0.50
2023-03-31T09:20:41.718Z,1.00
2023-03-31T09:23:24.785Z,1.00
2023-03-31T09:26:00.264Z,1.60
2023-03-31T09:32:16.849Z,1.48
2023-03-31T09:38:12.390Z,0.98
2023-03-31T09:40:51.047Z,1.00
2023-03-31T09:43:30.168Z,0.90
2023-03-31T09:46:10.044Z,1.27
2023-03-31T09:48:48.271Z,0.85
2023-03-31T09:51:24.884Z,1.33
2023-03-31T09:54:46.478Z,1.67
2023-03-31T09:57:32.764Z,0.95
2023-03-31T10:00:17.241Z,1.02
2023-03-31T10:03:01.690Z,1.58
2023-03-31T10:05:39.194Z,1.45
2023-03-31T10:08:57.852Z,2.03
2023-03-31T10:11:38.535Z,1.23
2023-03-31T10:14:13.789Z,0.55
2023-03-31T10:16:50.302Z,0.82
2023-03-31T10:19:27.109Z,0.50
2023-03-31T10:22:21.644Z,0.70
2023-03-31T10:25:14.821Z,1.73
2023-03-31T10:27:50.285Z,1.02
2023-03-31T10:30:38.321Z,1.48
2023-03-31T10:33:22.592Z,0.80
2023-03-31T10:36:01.203Z,0.80
2023-03-31T10:38:35.425Z,1.48
2023-03-31T10:41:08.401Z,0.93
2023-03-31T10:43:55.205Z,0.90
2023-03-31T10:47:04.766Z,0.88
2023-03-31T10:49:39.507Z,1.30
2023-03-31T10:52:25.758Z,1.05
2023-03-31T10:54:59.833Z,1.52
2023-03-31T10:57:56.280Z,0.90
2023-03-31T11:00:29.255Z,1.65
2023-03-31T11:05:52.592Z,1.10
2023-03-31T11:08:20.364Z,1.17
2023-03-31T11:11:05.792Z,0.82
2023-03-31T11:14:12.400Z,0.70
2023-03-31T11:17:12.643Z,1.00
2023-03-31T11:20:12.833Z,1.00
2023-03-31T11:23:13.022Z,1.00
2023-03-31T11:25:50.486Z,0.95
2023-03-31T11:28:27.505Z,0.73
2023-03-31T11:31:20.797Z,1.00
2023-03-31T11:34:22.961Z,0.73
2023-03-31T11:37:16.124Z,0.90
2023-03-31T11:40:08.178Z,0.70
2023-03-31T11:42:42.158Z,0.65
2023-03-31T11:45:18.558Z,0.60
2023-03-31T11:47:49.264Z,1.13
2023-03-31T11:50:27.849Z,0.40
2023-03-31T11:53:02.369Z,0.40
2023-03-31T11:55:32.468Z,0.60
2023-03-31T11:58:10.303Z,1.90
2023-03-31T12:00:52.174Z,0.77
2023-03-31T12:03:27.283Z,0.50
2023-03-31T12:06:02.490Z,0.70
2023-03-31T12:08:35.538Z,0.70
2023-03-31T12:13:47.706Z,0.70
2023-03-31T12:16:46.031Z,1.25
2023-03-31T12:19:32.324Z,0.82
2023-03-31T12:22:19.007Z,0.85
2023-03-31T12:24:47.017Z,0.55
2023-03-31T12:27:40.120Z,0.70
2023-03-31T12:30:15.696Z,0.63
2023-03-31T12:32:49.079Z,1.02
2023-03-31T12:35:40.587Z,0.90
2023-03-31T12:38:19.697Z,0.90
2023-03-31T12:41:03.123Z,1.17
2023-03-31T12:43:59.593Z,1.70
2023-03-31T12:46:46.418Z,1.00
2023-03-31T12:49:32.569Z,1.33
2023-03-31T12:52:07.281Z,1.20
2023-03-31T12:54:56.560Z,1.63
2023-03-31T12:57:25.488Z,1.48
2023-03-31T13:00:13.591Z,1.17
2023-03-31T13:02:41.334Z,1.02
2023-03-31T13:05:36.837Z,0.90
2023-03-31T13:08:43.556Z,1.00
2023-03-31T13:11:10.894Z,0.90
2023-03-31T13:16:36.848Z,1.52
2023-03-31T13:19:04.636Z,0.98
2023-03-31T13:21:32.101Z,1.02
2023-03-31T13:24:01.705Z,1.20
2023-03-31T13:26:38.610Z,1.00
2023-03-31T13:29:15.534Z,0.63
2023-03-31T13:32:01.087Z,0.68
2023-03-31T13:34:44.005Z,0.57
2023-03-31T13:37:29.594Z,0.75
2023-03-31T13:40:22.643Z,0.95
2023-03-31T13:42:49.846Z,0.70
2023-03-31T13:45:44.818Z,0.57
2023-03-31T13:48:12.553Z,0.85
2023-03-31T13:51:01.246Z,0.55
2023-03-31T13:53:43.516Z,0.73
2023-03-31T13:56:43.925Z,0.90
2023-03-31T13:59:11.089Z,0.82
2023-03-31T14:02:12.930Z,0.70
2023-03-31T14:04:59.311Z,1.35
2023-03-31T14:07:53.021Z,0.70
2023-03-31T14:10:31.275Z,0.77
2023-03-31T14:13:07.911Z,0.70
2023-03-31T14:15:38.923Z,1.02
2023-03-31T14:18:08.652Z,0.60
2023-03-31T14:20:45.732Z,0.93
2023-03-31T14:23:30.902Z,1.30
2023-03-31T14:26:18.756Z,0.68
2023-03-31T14:29:20.736Z,1.27
2023-03-31T14:31:57.184Z,0.73
2023-03-31T14:34:44.996Z,0.82
2023-03-31T14:37:17.987Z,0.60
2023-03-31T14:42:17.837Z,1.23
2023-03-31T14:44:48.805Z,0.63
2023-03-31T14:47:29.422Z,0.75
2023-03-31T14:50:01.108Z,0.80
2023-03-31T14:52:32.582Z,0.65
2023-03-31T14:55:00.591Z,1.10
2023-03-31T15:00:31.708Z,0.52
2023-03-31T15:03:02.128Z,0.70
2023-03-31T15:05:38.359Z,0.73
2023-03-31T15:08:10.932Z,0.80
2023-03-31T15:10:44.450Z,0.60
2023-03-31T15:13:28.085Z,0.93
2023-03-31T15:15:57.385Z,0.85
2023-03-31T15:18:27.002Z,0.63
2023-03-31T15:20:56.481Z,0.65
2023-03-31T15:23:27.714Z,0.77
2023-03-31T15:26:04.259Z,0.73
2023-03-31T15:28:50.041Z,0.82
2023-03-31T15:31:17.819Z,0.70
2023-03-31T15:33:45.491Z,0.80
2023-03-31T15:36:13.554Z,2.28
2023-03-31T15:38:41.536Z,0.40
2023-03-31T15:41:13.936Z,1.50
2023-03-31T15:44:05.010Z,0.68
2023-03-31T15:46:44.310Z,0.70
2023-03-31T15:49:22.972Z,0.65
2023-03-31T15:51:51.673Z,0.90
2023-03-31T15:54:37.744Z,0.93
2023-03-31T15:57:07.684Z,0.77
